sensor_id;sensor_type;location;lat;lon;timestamp;P1;durP1;ratioP1;P2;durP2;ratioP2
80494;SDS011;69819;48.798;11.770;2024-02-16T00:00:26;2.13;;;1.92;;
80494;SDS011;69819;48.798;11.770;2024-02-16T00:02:52;2.30;;;1.85;;
80494;SDS011;69819;48.798;11.770;2024-02-16T00:05:18;2.17;;;1.98;;
80494;SDS011;69819;48.798;11.770;2024-02-16T00:07:44;2.28;;;1.70;;
80494;SDS011;69819;48.798;11.770;2024-02-16T00:10:10;1.88;;;1.70;;
80494;SDS011;69819;48.798;11.770;2024-02-16T00:12:39;1.65;;;1.55;;
80494;SDS011;69819;48.798;11.770;2024-02-16T00:15:05;1.85;;;1.75;;
80494;SDS011;69819;48.798;11.770;2024-02-16T00:17:31;2.33;;;2.00;;
80494;SDS011;69819;48.798;11.770;2024-02-16T00:19:58;2.95;;;1.95;;
80494;SDS011;69819;48.798;11.770;2024-02-16T00:22:24;2.28;;;1.80;;
80494;SDS011;69819;48.798;11.770;2024-02-16T00:24:51;2.53;;;2.33;;
80494;SDS011;69819;48.798;11.770;2024-02-16T00:27:17;2.20;;;1.90;;
80494;SDS011;69819;48.798;11.770;2024-02-16T00:29:42;2.15;;;2.03;;
80494;SDS011;69819;48.798;11.770;2024-02-16T00:32:08;2.45;;;1.67;;
80494;SDS011;69819;48.798;11.770;2024-02-16T00:34:35;2.10;;;1.85;;
80494;SDS011;69819;48.798;11.770;2024-02-16T00:37:02;1.98;;;1.85;;
80494;SDS011;69819;48.798;11.770;2024-02-16T00:39:35;2.13;;;1.92;;
80494;SDS011;69819;48.798;11.770;2024-02-16T00:42:02;1.85;;;1.75;;
80494;SDS011;69819;48.798;11.770;2024-02-16T00:44:28;1.80;;;1.70;;
80494;SDS011;69819;48.798;11.770;2024-02-16T00:46:54;1.92;;;1.75;;
80494;SDS011;69819;48.798;11.770;2024-02-16T00:49:20;2.10;;;1.98;;
80494;SDS011;69819;48.798;11.770;2024-02-16T00:51:45;1.65;;;1.55;;
80494;SDS011;69819;48.798;11.770;2024-02-16T00:54:11;1.95;;;1.77;;
80494;SDS011;69819;48.798;11.770;2024-02-16T00:56:37;3.10;;;1.60;;
80494;SDS011;69819;48.798;11.770;2024-02-16T00:59:03;2.03;;;1.83;;
80494;SDS011;69819;48.798;11.770;2024-02-16T01:01:30;1.98;;;1.67;;
80494;SDS011;69819;48.798;11.770;2024-02-16T01:03:56;2.30;;;2.10;;
80494;SDS011;69819;48.798;11.770;2024-02-16T01:06:21;1.85;;;1.75;;
80494;SDS011;69819;48.798;11.770;2024-02-16T01:08:47;3.17;;;1.92;;
80494;SDS011;69819;48.798;11.770;2024-02-16T01:11:13;2.00;;;1.80;;
80494;SDS011;69819;48.798;11.770;2024-02-16T01:13:39;2.92;;;2.00;;
80494;SDS011;69819;48.798;11.770;2024-02-16T01:16:05;1.92;;;1.83;;
80494;SDS011;69819;48.798;11.770;2024-02-16T01:18:32;1.90;;;1.80;;
80494;SDS011;69819;48.798;11.770;2024-02-16T01:20:58;1.88;;;1.75;;
80494;SDS011;69819;48.798;11.770;2024-02-16T01:23:24;2.10;;;1.90;;
80494;SDS011;69819;48.798;11.770;2024-02-16T01:25:50;3.17;;;2.10;;
80494;SDS011;69819;48.798;11.770;2024-02-16T01:28:16;2.33;;;2.10;;
80494;SDS011;69819;48.798;11.770;2024-02-16T01:30:42;2.42;;;2.20;;
80494;SDS011;69819;48.798;11.770;2024-02-16T01:33:08;2.28;;;2.08;;
80494;SDS011;69819;48.798;11.770;2024-02-16T01:35:34;2.40;;;2.20;;
80494;SDS011;69819;48.798;11.770;2024-02-16T01:38:00;3.03;;;2.30;;
80494;SDS011;69819;48.798;11.770;2024-02-16T01:40:27;1.98;;;1.75;;
80494;SDS011;69819;48.798;11.770;2024-02-16T01:42:53;2.38;;;2.17;;
80494;SDS011;69819;48.798;11.770;2024-02-16T01:45:20;2.30;;;2.13;;
80494;SDS011;69819;48.798;11.770;2024-02-16T01:47:47;2.30;;;2.10;;
80494;SDS011;69819;48.798;11.770;2024-02-16T01:50:16;3.03;;;2.20;;
80494;SDS011;69819;48.798;11.770;2024-02-16T01:52:44;3.65;;;2.30;;
80494;SDS011;69819;48.798;11.770;2024-02-16T01:55:12;2.28;;;2.08;;
80494;SDS011;69819;48.798;11.770;2024-02-16T01:57:45;2.55;;;2.35;;
80494;SDS011;69819;48.798;11.770;2024-02-16T02:00:13;2.10;;;2.00;;
80494;SDS011;69819;48.798;11.770;2024-02-16T02:02:43;2.47;;;2.28;;
80494;SDS011;69819;48.798;11.770;2024-02-16T02:05:11;2.72;;;2.13;;
80494;SDS011;69819;48.798;11.770;2024-02-16T02:07:38;2.45;;;2.25;;
80494;SDS011;69819;48.798;11.770;2024-02-16T02:10:04;2.40;;;2.20;;
80494;SDS011;69819;48.798;11.770;2024-02-16T02:12:30;2.85;;;2.60;;
80494;SDS011;69819;48.798;11.770;2024-02-16T02:14:56;3.00;;;2.70;;
80494;SDS011;69819;48.798;11.770;2024-02-16T02:17:21;3.83;;;3.00;;
80494;SDS011;69819;48.798;11.770;2024-02-16T02:19:48;3.78;;;2.67;;
80494;SDS011;69819;48.798;11.770;2024-02-16T02:22:15;2.80;;;2.60;;
80494;SDS011;69819;48.798;11.770;2024-02-16T02:24:43;3.45;;;3.03;;
80494;SDS011;69819;48.798;11.770;2024-02-16T02:27:13;4.28;;;3.30;;
80494;SDS011;69819;48.798;11.770;2024-02-16T02:29:40;4.13;;;3.22;;
80494;SDS011;69819;48.798;11.770;2024-02-16T02:32:07;3.50;;;3.03;;
80494;SDS011;69819;48.798;11.770;2024-02-16T02:34:34;3.60;;;3.25;;
80494;SDS011;69819;48.798;11.770;2024-02-16T02:37:01;3.92;;;3.20;;
80494;SDS011;69819;48.798;11.770;2024-02-16T02:39:29;4.03;;;3.38;;
80494;SDS011;69819;48.798;11.770;2024-02-16T02:41:55;3.75;;;3.13;;
80494;SDS011;69819;48.798;11.770;2024-02-16T02:44:21;3.88;;;3.20;;
80494;SDS011;69819;48.798;11.770;2024-02-16T02:46:47;3.97;;;3.58;;
80494;SDS011;69819;48.798;11.770;2024-02-16T02:49:13;3.85;;;3.22;;
80494;SDS011;69819;48.798;11.770;2024-02-16T02:51:38;4.35;;;3.15;;
80494;SDS011;69819;48.798;11.770;2024-02-16T02:54:04;3.50;;;3.20;;
80494;SDS011;69819;48.798;11.770;2024-02-16T02:56:30;4.85;;;3.78;;
80494;SDS011;69819;48.798;11.770;2024-02-16T02:58:56;4.70;;;3.50;;
80494;SDS011;69819;48.798;11.770;2024-02-16T03:01:22;4.43;;;3.65;;
80494;SDS011;69819;48.798;11.770;2024-02-16T03:03:48;4.50;;;4.03;;
80494;SDS011;69819;48.798;11.770;2024-02-16T03:06:17;4.43;;;3.97;;
80494;SDS011;69819;48.798;11.770;2024-02-16T03:08:44;4.68;;;3.83;;
80494;SDS011;69819;48.798;11.770;2024-02-16T03:11:10;4.47;;;3.28;;
80494;SDS011;69819;48.798;11.770;2024-02-16T03:13:36;4.05;;;3.65;;
80494;SDS011;69819;48.798;11.770;2024-02-16T03:16:02;3.80;;;3.40;;
80494;SDS011;69819;48.798;11.770;2024-02-16T03:18:29;4.13;;;3.30;;
80494;SDS011;69819;48.798;11.770;2024-02-16T03:20:56;3.80;;;3.10;;
80494;SDS011;69819;48.798;11.770;2024-02-16T03:23:22;3.90;;;3.47;;
80494;SDS011;69819;48.798;11.770;2024-02-16T03:25:48;5.18;;;3.35;;
80494;SDS011;69819;48.798;11.770;2024-02-16T03:28:14;3.78;;;3.38;;
80494;SDS011;69819;48.798;11.770;2024-02-16T03:30:40;3.67;;;3.38;;
80494;SDS011;69819;48.798;11.770;2024-02-16T03:33:08;5.25;;;3.17;;
80494;SDS011;69819;48.798;11.770;2024-02-16T03:35:34;4.07;;;3.45;;
80494;SDS011;69819;48.798;11.770;2024-02-16T03:38:01;3.65;;;3.13;;
80494;SDS011;69819;48.798;11.770;2024-02-16T03:40:30;3.53;;;3.22;;
80494;SDS011;69819;48.798;11.770;2024-02-16T03:42:56;3.90;;;3.08;;
80494;SDS011;69819;48.798;11.770;2024-02-16T03:45:23;3.78;;;3.33;;
80494;SDS011;69819;48.798;11.770;2024-02-16T03:47:49;5.60;;;3.45;;
80494;SDS011;69819;48.798;11.770;2024-02-16T03:50:17;6.07;;;3.38;;
80494;SDS011;69819;48.798;11.770;2024-02-16T03:52:44;3.72;;;3.10;;
80494;SDS011;69819;48.798;11.770;2024-02-16T03:55:10;5.15;;;3.75;;
80494;SDS011;69819;48.798;11.770;2024-02-16T03:57:37;4.45;;;3.67;;
80494;SDS011;69819;48.798;11.770;2024-02-16T04:00:03;4.15;;;3.55;;
80494;SDS011;69819;48.798;11.770;2024-02-16T04:02:31;5.80;;;3.78;;
80494;SDS011;69819;48.798;11.770;2024-02-16T04:04:57;3.35;;;3.03;;
80494;SDS011;69819;48.798;11.770;2024-02-16T04:07:23;4.63;;;3.90;;
80494;SDS011;69819;48.798;11.770;2024-02-16T04:09:49;5.15;;;3.35;;
80494;SDS011;69819;48.798;11.770;2024-02-16T04:12:15;4.05;;;3.50;;
80494;SDS011;69819;48.798;11.770;2024-02-16T04:14:41;3.67;;;3.38;;
80494;SDS011;69819;48.798;11.770;2024-02-16T04:17:08;3.67;;;3.28;;
80494;SDS011;69819;48.798;11.770;2024-02-16T04:19:36;4.03;;;3.63;;
80494;SDS011;69819;48.798;11.770;2024-02-16T04:22:02;4.00;;;3.55;;
80494;SDS011;69819;48.798;11.770;2024-02-16T04:24:28;4.20;;;3.83;;
80494;SDS011;69819;48.798;11.770;2024-02-16T04:26:55;5.43;;;3.75;;
80494;SDS011;69819;48.798;11.770;2024-02-16T04:29:21;4.57;;;3.67;;
80494;SDS011;69819;48.798;11.770;2024-02-16T04:31:46;4.60;;;3.53;;
80494;SDS011;69819;48.798;11.770;2024-02-16T04:34:13;3.80;;;3.40;;
80494;SDS011;69819;48.798;11.770;2024-02-16T04:36:39;3.88;;;3.58;;
80494;SDS011;69819;48.798;11.770;2024-02-16T04:39:06;3.85;;;3.47;;
80494;SDS011;69819;48.798;11.770;2024-02-16T04:41:32;3.50;;;2.65;;
80494;SDS011;69819;48.798;11.770;2024-02-16T04:43:57;3.30;;;2.97;;
80494;SDS011;69819;48.798;11.770;2024-02-16T04:46:23;3.42;;;3.05;;
80494;SDS011;69819;48.798;11.770;2024-02-16T04:48:49;4.50;;;3.20;;
80494;SDS011;69819;48.798;11.770;2024-02-16T04:51:14;3.63;;;3.20;;
80494;SDS011;69819;48.798;11.770;2024-02-16T04:53:40;5.03;;;3.80;;
80494;SDS011;69819;48.798;11.770;2024-02-16T04:56:06;4.30;;;3.88;;
80494;SDS011;69819;48.798;11.770;2024-02-16T04:58:32;3.55;;;3.15;;
80494;SDS011;69819;48.798;11.770;2024-02-16T05:00:58;4.50;;;3.45;;
80494;SDS011;69819;48.798;11.770;2024-02-16T05:03:24;3.42;;;3.05;;
80494;SDS011;69819;48.798;11.770;2024-02-16T05:05:50;3.90;;;3.50;;
80494;SDS011;69819;48.798;11.770;2024-02-16T05:08:21;4.10;;;3.70;;
80494;SDS011;69819;48.798;11.770;2024-02-16T05:10:48;6.63;;;4.03;;
80494;SDS011;69819;48.798;11.770;2024-02-16T05:13:13;4.50;;;4.00;;
80494;SDS011;69819;48.798;11.770;2024-02-16T05:15:39;4.68;;;3.72;;
80494;SDS011;69819;48.798;11.770;2024-02-16T05:18:05;4.18;;;3.65;;
80494;SDS011;69819;48.798;11.770;2024-02-16T05:20:31;5.38;;;3.95;;
80494;SDS011;69819;48.798;11.770;2024-02-16T05:22:57;5.15;;;3.88;;
80494;SDS011;69819;48.798;11.770;2024-02-16T05:25:23;4.07;;;3.47;;
80494;SDS011;69819;48.798;11.770;2024-02-16T05:27:49;4.85;;;4.13;;
80494;SDS011;69819;48.798;11.770;2024-02-16T05:30:15;5.80;;;4.05;;
80494;SDS011;69819;48.798;11.770;2024-02-16T05:32:43;4.05;;;3.63;;
80494;SDS011;69819;48.798;11.770;2024-02-16T05:35:12;5.45;;;4.07;;
80494;SDS011;69819;48.798;11.770;2024-02-16T05:37:45;4.82;;;3.67;;
80494;SDS011;69819;48.798;11.770;2024-02-16T05:40:16;5.70;;;4.38;;
80494;SDS011;69819;48.798;11.770;2024-02-16T05:42:54;4.38;;;3.97;;
80494;SDS011;69819;48.798;11.770;2024-02-16T05:45:23;5.35;;;4.05;;
80494;SDS011;69819;48.798;11.770;2024-02-16T05:47:53;5.75;;;4.35;;
80494;SDS011;69819;48.798;11.770;2024-02-16T05:50:19;4.63;;;3.88;;
80494;SDS011;69819;48.798;11.770;2024-02-16T05:52:47;4.95;;;4.15;;
80494;SDS011;69819;48.798;11.770;2024-02-16T05:55:14;6.00;;;4.05;;
80494;SDS011;69819;48.798;11.770;2024-02-16T05:57:40;4.47;;;3.97;;
80494;SDS011;69819;48.798;11.770;2024-02-16T06:00:07;4.45;;;4.03;;
80494;SDS011;69819;48.798;11.770;2024-02-16T06:02:35;5.75;;;4.35;;
80494;SDS011;69819;48.798;11.770;2024-02-16T06:05:02;5.53;;;4.75;;
80494;SDS011;69819;48.798;11.770;2024-02-16T06:07:29;4.85;;;4.00;;
80494;SDS011;69819;48.798;11.770;2024-02-16T06:09:56;6.43;;;4.78;;
80494;SDS011;69819;48.798;11.770;2024-02-16T06:12:22;5.82;;;4.57;;
80494;SDS011;69819;48.798;11.770;2024-02-16T06:14:48;6.28;;;4.60;;
80494;SDS011;69819;48.798;11.770;2024-02-16T06:17:15;5.82;;;4.70;;
80494;SDS011;69819;48.798;11.770;2024-02-16T06:19:41;5.05;;;4.53;;
80494;SDS011;69819;48.798;11.770;2024-02-16T06:22:08;7.20;;;4.88;;
80494;SDS011;69819;48.798;11.770;2024-02-16T06:24:34;8.88;;;4.78;;
80494;SDS011;69819;48.798;11.770;2024-02-16T06:27:01;5.95;;;4.63;;
80494;SDS011;69819;48.798;11.770;2024-02-16T06:29:28;6.43;;;4.72;;
80494;SDS011;69819;48.798;11.770;2024-02-16T06:31:55;5.93;;;4.60;;
80494;SDS011;69819;48.798;11.770;2024-02-16T06:34:21;6.30;;;4.80;;
80494;SDS011;69819;48.798;11.770;2024-02-16T06:36:47;6.63;;;4.78;;
80494;SDS011;69819;48.798;11.770;2024-02-16T06:39:14;6.20;;;4.75;;
80494;SDS011;69819;48.798;11.770;2024-02-16T06:41:43;6.43;;;5.28;;
80494;SDS011;69819;48.798;11.770;2024-02-16T06:44:13;6.72;;;4.90;;
80494;SDS011;69819;48.798;11.770;2024-02-16T06:46:39;7.40;;;4.90;;
80494;SDS011;69819;48.798;11.770;2024-02-16T06:49:05;6.80;;;5.05;;
80494;SDS011;69819;48.798;11.770;2024-02-16T06:51:31;6.13;;;5.18;;
80494;SDS011;69819;48.798;11.770;2024-02-16T06:53:58;6.45;;;5.00;;
80494;SDS011;69819;48.798;11.770;2024-02-16T06:56:23;6.15;;;4.80;;
80494;SDS011;69819;48.798;11.770;2024-02-16T06:58:49;6.13;;;4.68;;
80494;SDS011;69819;48.798;11.770;2024-02-16T07:01:16;5.72;;;4.95;;
80494;SDS011;69819;48.798;11.770;2024-02-16T07:03:43;5.45;;;4.55;;
80494;SDS011;69819;48.798;11.770;2024-02-16T07:06:10;6.57;;;4.95;;
80494;SDS011;69819;48.798;11.770;2024-02-16T07:08:38;6.90;;;5.22;;
80494;SDS011;69819;48.798;11.770;2024-02-16T07:11:05;5.90;;;4.78;;
80494;SDS011;69819;48.798;11.770;2024-02-16T07:13:33;5.65;;;4.85;;
80494;SDS011;69819;48.798;11.770;2024-02-16T07:15:59;6.55;;;4.68;;
80494;SDS011;69819;48.798;11.770;2024-02-16T07:18:25;6.55;;;4.55;;
80494;SDS011;69819;48.798;11.770;2024-02-16T07:20:51;5.13;;;4.45;;
80494;SDS011;69819;48.798;11.770;2024-02-16T07:23:17;6.85;;;4.57;;
80494;SDS011;69819;48.798;11.770;2024-02-16T07:25:43;7.03;;;5.15;;
80494;SDS011;69819;48.798;11.770;2024-02-16T07:28:09;6.40;;;5.32;;
80494;SDS011;69819;48.798;11.770;2024-02-16T07:30:35;6.93;;;4.93;;
80494;SDS011;69819;48.798;11.770;2024-02-16T07:33:06;7.13;;;5.32;;
80494;SDS011;69819;48.798;11.770;2024-02-16T07:35:35;6.18;;;5.13;;
80494;SDS011;69819;48.798;11.770;2024-02-16T07:38:03;5.70;;;4.75;;
80494;SDS011;69819;48.798;11.770;2024-02-16T07:40:29;7.35;;;5.55;;
80494;SDS011;69819;48.798;11.770;2024-02-16T07:42:56;6.15;;;4.97;;
80494;SDS011;69819;48.798;11.770;2024-02-16T07:45:22;6.68;;;5.03;;
80494;SDS011;69819;48.798;11.770;2024-02-16T07:47:48;6.28;;;4.88;;
80494;SDS011;69819;48.798;11.770;2024-02-16T07:50:18;7.55;;;5.43;;
80494;SDS011;69819;48.798;11.770;2024-02-16T07:52:47;7.00;;;4.95;;
80494;SDS011;69819;48.798;11.770;2024-02-16T07:55:14;5.55;;;4.90;;
80494;SDS011;69819;48.798;11.770;2024-02-16T07:57:43;5.80;;;4.70;;
80494;SDS011;69819;48.798;11.770;2024-02-16T08:00:10;5.38;;;4.47;;
80494;SDS011;69819;48.798;11.770;2024-02-16T08:02:36;6.78;;;5.30;;
80494;SDS011;69819;48.798;11.770;2024-02-16T08:05:04;5.70;;;4.93;;
80494;SDS011;69819;48.798;11.770;2024-02-16T08:07:31;6.45;;;5.32;;
80494;SDS011;69819;48.798;11.770;2024-02-16T08:09:57;7.13;;;5.28;;
80494;SDS011;69819;48.798;11.770;2024-02-16T08:12:22;7.55;;;5.32;;
80494;SDS011;69819;48.798;11.770;2024-02-16T08:14:50;6.40;;;5.30;;
80494;SDS011;69819;48.798;11.770;2024-02-16T08:17:16;6.72;;;5.82;;
80494;SDS011;69819;48.798;11.770;2024-02-16T08:19:42;6.90;;;5.50;;
80494;SDS011;69819;48.798;11.770;2024-02-16T08:22:08;6.10;;;5.47;;
80494;SDS011;69819;48.798;11.770;2024-02-16T08:24:36;5.63;;;5.05;;
80494;SDS011;69819;48.798;11.770;2024-02-16T08:27:03;6.28;;;5.10;;
80494;SDS011;69819;48.798;11.770;2024-02-16T08:29:29;6.38;;;5.13;;
80494;SDS011;69819;48.798;11.770;2024-02-16T08:31:55;8.45;;;5.20;;
80494;SDS011;69819;48.798;11.770;2024-02-16T08:34:21;7.85;;;5.53;;
80494;SDS011;69819;48.798;11.770;2024-02-16T08:36:48;5.80;;;4.82;;
80494;SDS011;69819;48.798;11.770;2024-02-16T08:39:15;8.00;;;5.35;;
80494;SDS011;69819;48.798;11.770;2024-02-16T08:41:42;6.32;;;4.88;;
80494;SDS011;69819;48.798;11.770;2024-02-16T08:44:14;5.95;;;5.25;;
80494;SDS011;69819;48.798;11.770;2024-02-16T08:46:40;5.40;;;4.85;;
80494;SDS011;69819;48.798;11.770;2024-02-16T08:49:06;5.63;;;5.03;;
80494;SDS011;69819;48.798;11.770;2024-02-16T08:51:32;6.05;;;5.45;;
80494;SDS011;69819;48.798;11.770;2024-02-16T08:54:01;7.05;;;5.53;;
80494;SDS011;69819;48.798;11.770;2024-02-16T08:56:27;5.85;;;4.90;;
80494;SDS011;69819;48.798;11.770;2024-02-16T08:58:53;7.70;;;5.70;;
80494;SDS011;69819;48.798;11.770;2024-02-16T09:01:29;6.03;;;5.20;;
80494;SDS011;69819;48.798;11.770;2024-02-16T09:04:02;6.95;;;5.43;;
80494;SDS011;69819;48.798;11.770;2024-02-16T09:06:28;7.28;;;5.80;;
80494;SDS011;69819;48.798;11.770;2024-02-16T09:08:55;6.20;;;5.60;;
80494;SDS011;69819;48.798;11.770;2024-02-16T09:11:22;6.57;;;5.53;;
80494;SDS011;69819;48.798;11.770;2024-02-16T09:13:48;6.13;;;5.53;;
80494;SDS011;69819;48.798;11.770;2024-02-16T09:16:15;5.30;;;4.80;;
80494;SDS011;69819;48.798;11.770;2024-02-16T09:18:41;5.70;;;5.15;;
80494;SDS011;69819;48.798;11.770;2024-02-16T09:21:07;5.38;;;4.78;;
80494;SDS011;69819;48.798;11.770;2024-02-16T09:23:33;5.50;;;5.00;;
80494;SDS011;69819;48.798;11.770;2024-02-16T09:26:00;5.47;;;4.43;;
80494;SDS011;69819;48.798;11.770;2024-02-16T09:28:27;6.43;;;4.50;;
80494;SDS011;69819;48.798;11.770;2024-02-16T09:30:54;5.30;;;4.80;;
80494;SDS011;69819;48.798;11.770;2024-02-16T09:33:21;5.18;;;4.40;;
80494;SDS011;69819;48.798;11.770;2024-02-16T09:35:49;6.35;;;5.32;;
80494;SDS011;69819;48.798;11.770;2024-02-16T09:38:15;6.22;;;5.00;;
80494;SDS011;69819;48.798;11.770;2024-02-16T09:40:42;5.15;;;4.65;;
80494;SDS011;69819;48.798;11.770;2024-02-16T09:43:08;6.28;;;5.68;;
80494;SDS011;69819;48.798;11.770;2024-02-16T09:45:34;6.43;;;5.43;;
80494;SDS011;69819;48.798;11.770;2024-02-16T09:48:00;6.53;;;5.47;;
80494;SDS011;69819;48.798;11.770;2024-02-16T09:50:29;6.20;;;5.57;;
80494;SDS011;69819;48.798;11.770;2024-02-16T09:52:55;5.57;;;5.05;;
80494;SDS011;69819;48.798;11.770;2024-02-16T09:55:22;6.30;;;5.45;;
80494;SDS011;69819;48.798;11.770;2024-02-16T09:58:00;5.70;;;5.10;;
80494;SDS011;69819;48.798;11.770;2024-02-16T10:00:27;5.97;;;5.38;;
80494;SDS011;69819;48.798;11.770;2024-02-16T10:02:53;6.15;;;5.55;;
80494;SDS011;69819;48.798;11.770;2024-02-16T10:05:19;5.63;;;4.95;;
80494;SDS011;69819;48.798;11.770;2024-02-16T10:07:46;5.88;;;5.32;;
80494;SDS011;69819;48.798;11.770;2024-02-16T10:10:19;6.38;;;5.38;;
80494;SDS011;69819;48.798;11.770;2024-02-16T10:13:15;6.38;;;5.32;;
80494;SDS011;69819;48.798;11.770;2024-02-16T10:15:41;6.22;;;5.18;;
80494;SDS011;69819;48.798;11.770;2024-02-16T10:18:06;5.93;;;5.32;;
80494;SDS011;69819;48.798;11.770;2024-02-16T10:20:34;6.07;;;5.47;;
80494;SDS011;69819;48.798;11.770;2024-02-16T10:25:37;6.78;;;5.63;;
80494;SDS011;69819;48.798;11.770;2024-02-16T10:28:06;7.63;;;5.82;;
80494;SDS011;69819;48.798;11.770;2024-02-16T10:30:37;5.75;;;5.20;;
80494;SDS011;69819;48.798;11.770;2024-02-16T10:33:04;6.05;;;5.43;;
80494;SDS011;69819;48.798;11.770;2024-02-16T10:35:34;6.63;;;5.45;;
80494;SDS011;69819;48.798;11.770;2024-02-16T10:38:02;6.18;;;5.32;;
80494;SDS011;69819;48.798;11.770;2024-02-16T10:40:38;7.70;;;5.43;;
80494;SDS011;69819;48.798;11.770;2024-02-16T10:43:06;5.87;;;5.37;;
80494;SDS011;69819;48.798;11.770;2024-02-16T10:45:34;5.78;;;5.18;;
80494;SDS011;69819;48.798;11.770;2024-02-16T10:48:02;5.88;;;4.93;;
80494;SDS011;69819;48.798;11.770;2024-02-16T10:50:31;5.90;;;4.95;;
80494;SDS011;69819;48.798;11.770;2024-02-16T10:53:00;6.35;;;5.20;;
80494;SDS011;69819;48.798;11.770;2024-02-16T10:55:37;6.07;;;4.70;;
80494;SDS011;69819;48.798;11.770;2024-02-16T10:58:06;5.75;;;4.35;;
80494;SDS011;69819;48.798;11.770;2024-02-16T11:00:33;5.75;;;4.55;;
80494;SDS011;69819;48.798;11.770;2024-02-16T11:03:01;5.70;;;4.57;;
80494;SDS011;69819;48.798;11.770;2024-02-16T11:05:35;6.53;;;4.80;;
80494;SDS011;69819;48.798;11.770;2024-02-16T11:08:05;5.60;;;5.00;;
80494;SDS011;69819;48.798;11.770;2024-02-16T11:10:39;5.43;;;4.68;;
80494;SDS011;69819;48.798;11.770;2024-02-16T11:13:24;4.10;;;3.70;;
80494;SDS011;69819;48.798;11.770;2024-02-16T11:18:24;5.75;;;3.85;;
80494;SDS011;69819;48.798;11.770;2024-02-16T11:20:52;5.70;;;5.00;;
80494;SDS011;69819;48.798;11.770;2024-02-16T11:23:24;4.75;;;4.18;;
80494;SDS011;69819;48.798;11.770;2024-02-16T11:25:54;5.13;;;4.25;;
80494;SDS011;69819;48.798;11.770;2024-02-16T11:28:27;4.85;;;4.18;;
80494;SDS011;69819;48.798;11.770;2024-02-16T11:30:54;6.05;;;4.68;;
80494;SDS011;69819;48.798;11.770;2024-02-16T11:33:20;4.80;;;4.30;;
80494;SDS011;69819;48.798;11.770;2024-02-16T11:35:58;4.63;;;3.55;;
80494;SDS011;69819;48.798;11.770;2024-02-16T11:38:27;4.15;;;3.67;;
80494;SDS011;69819;48.798;11.770;2024-02-16T11:40:58;4.32;;;3.53;;
80494;SDS011;69819;48.798;11.770;2024-02-16T11:43:31;4.82;;;4.00;;
80494;SDS011;69819;48.798;11.770;2024-02-16T11:46:10;4.10;;;3.70;;
80494;SDS011;69819;48.798;11.770;2024-02-16T11:48:41;4.40;;;4.00;;
80494;SDS011;69819;48.798;11.770;2024-02-16T11:51:07;4.18;;;3.78;;
80494;SDS011;69819;48.798;11.770;2024-02-16T11:53:33;4.45;;;4.05;;
80494;SDS011;69819;48.798;11.770;2024-02-16T11:55:59;4.15;;;3.78;;
80494;SDS011;69819;48.798;11.770;2024-02-16T11:58:25;4.53;;;3.95;;
80494;SDS011;69819;48.798;11.770;2024-02-16T12:00:51;3.90;;;3.50;;
80494;SDS011;69819;48.798;11.770;2024-02-16T12:03:18;4.00;;;3.70;;
80494;SDS011;69819;48.798;11.770;2024-02-16T12:05:52;3.90;;;3.60;;
80494;SDS011;69819;48.798;11.770;2024-02-16T12:08:31;3.97;;;3.58;;
80494;SDS011;69819;48.798;11.770;2024-02-16T12:10:59;3.88;;;3.40;;
80494;SDS011;69819;48.798;11.770;2024-02-16T12:13:25;4.45;;;3.80;;
80494;SDS011;69819;48.798;11.770;2024-02-16T12:15:52;5.78;;;4.28;;
80494;SDS011;69819;48.798;11.770;2024-02-16T12:18:21;4.78;;;3.90;;
80494;SDS011;69819;48.798;11.770;2024-02-16T12:25:53;3.42;;;3.13;;
80494;SDS011;69819;48.798;11.770;2024-02-16T12:28:24;3.53;;;3.22;;
80494;SDS011;69819;48.798;11.770;2024-02-16T12:30:55;3.75;;;3.33;;
80494;SDS011;69819;48.798;11.770;2024-02-16T12:33:21;4.82;;;3.42;;
80494;SDS011;69819;48.798;11.770;2024-02-16T12:35:47;3.80;;;3.17;;
80494;SDS011;69819;48.798;11.770;2024-02-16T12:38:13;4.10;;;3.67;;
80494;SDS011;69819;48.798;11.770;2024-02-16T12:40:42;4.28;;;3.85;;
80494;SDS011;69819;48.798;11.770;2024-02-16T12:43:14;4.28;;;3.30;;
80494;SDS011;69819;48.798;11.770;2024-02-16T12:45:40;3.60;;;3.30;;
80494;SDS011;69819;48.798;11.770;2024-02-16T12:48:07;4.18;;;3.13;;
80494;SDS011;69819;48.798;11.770;2024-02-16T12:50:35;4.38;;;3.45;;
80494;SDS011;69819;48.798;11.770;2024-02-16T12:53:02;4.07;;;3.58;;
80494;SDS011;69819;48.798;11.770;2024-02-16T12:55:28;3.60;;;3.30;;
80494;SDS011;69819;48.798;11.770;2024-02-16T12:57:55;3.85;;;3.38;;
80494;SDS011;69819;48.798;11.770;2024-02-16T13:00:21;3.75;;;3.45;;
80494;SDS011;69819;48.798;11.770;2024-02-16T13:02:48;4.03;;;3.63;;
80494;SDS011;69819;48.798;11.770;2024-02-16T13:05:13;4.85;;;3.80;;
80494;SDS011;69819;48.798;11.770;2024-02-16T13:07:39;3.55;;;3.25;;
80494;SDS011;69819;48.798;11.770;2024-02-16T13:10:07;4.55;;;3.78;;
80494;SDS011;69819;48.798;11.770;2024-02-16T13:12:33;4.35;;;3.65;;
80494;SDS011;69819;48.798;11.770;2024-02-16T13:15:02;3.67;;;3.35;;
80494;SDS011;69819;48.798;11.770;2024-02-16T13:17:29;3.85;;;3.42;;
80494;SDS011;69819;48.798;11.770;2024-02-16T13:19:55;4.15;;;3.75;;
80494;SDS011;69819;48.798;11.770;2024-02-16T13:22:29;3.50;;;3.17;;
80494;SDS011;69819;48.798;11.770;2024-02-16T13:24:54;5.70;;;3.35;;
80494;SDS011;69819;48.798;11.770;2024-02-16T13:27:20;4.45;;;3.65;;
80494;SDS011;69819;48.798;11.770;2024-02-16T13:29:46;3.40;;;3.00;;
80494;SDS011;69819;48.798;11.770;2024-02-16T13:32:11;5.47;;;3.60;;
80494;SDS011;69819;48.798;11.770;2024-02-16T13:34:37;3.83;;;3.25;;
80494;SDS011;69819;48.798;11.770;2024-02-16T13:37:03;4.80;;;3.78;;
80494;SDS011;69819;48.798;11.770;2024-02-16T13:39:29;6.22;;;3.72;;
80494;SDS011;69819;48.798;11.770;2024-02-16T13:41:54;4.43;;;3.63;;
80494;SDS011;69819;48.798;11.770;2024-02-16T13:44:22;4.03;;;3.63;;
80494;SDS011;69819;48.798;11.770;2024-02-16T13:46:49;5.82;;;4.35;;
80494;SDS011;69819;48.798;11.770;2024-02-16T13:49:15;4.80;;;3.80;;
80494;SDS011;69819;48.798;11.770;2024-02-16T13:51:41;4.95;;;4.45;;
80494;SDS011;69819;48.798;11.770;2024-02-16T13:54:07;5.20;;;3.83;;
80494;SDS011;69819;48.798;11.770;2024-02-16T13:56:33;4.63;;;4.07;;
80494;SDS011;69819;48.798;11.770;2024-02-16T13:59:01;4.85;;;3.88;;
80494;SDS011;69819;48.798;11.770;2024-02-16T14:01:28;5.53;;;4.07;;
80494;SDS011;69819;48.798;11.770;2024-02-16T14:03:54;4.78;;;4.05;;
80494;SDS011;69819;48.798;11.770;2024-02-16T14:06:21;5.15;;;4.15;;
80494;SDS011;69819;48.798;11.770;2024-02-16T14:08:47;5.32;;;3.97;;
80494;SDS011;69819;48.798;11.770;2024-02-16T14:11:17;5.20;;;4.03;;
80494;SDS011;69819;48.798;11.770;2024-02-16T14:13:44;4.40;;;3.90;;
80494;SDS011;69819;48.798;11.770;2024-02-16T14:16:10;4.35;;;3.95;;
80494;SDS011;69819;48.798;11.770;2024-02-16T14:18:36;4.50;;;4.10;;
80494;SDS011;69819;48.798;11.770;2024-02-16T14:21:02;5.25;;;4.45;;
80494;SDS011;69819;48.798;11.770;2024-02-16T14:23:31;6.05;;;5.00;;
80494;SDS011;69819;48.798;11.770;2024-02-16T14:25:58;5.90;;;4.80;;
80494;SDS011;69819;48.798;11.770;2024-02-16T14:28:24;4.53;;;4.07;;
80494;SDS011;69819;48.798;11.770;2024-02-16T14:30:50;4.45;;;3.97;;
80494;SDS011;69819;48.798;11.770;2024-02-16T14:33:16;4.60;;;3.85;;
80494;SDS011;69819;48.798;11.770;2024-02-16T14:35:42;5.15;;;3.92;;
80494;SDS011;69819;48.798;11.770;2024-02-16T14:38:08;4.07;;;3.60;;
80494;SDS011;69819;48.798;11.770;2024-02-16T14:40:34;4.30;;;3.90;;
80494;SDS011;69819;48.798;11.770;2024-02-16T14:43:01;5.35;;;3.83;;